Seattle Tacoma International Airport
KSEA : now visible

Airfield :











YOU CAN JOIN US ON...

 
LOGIN :

Register | Disclaimer

   EN    FR    IT 

 









Legend :    VFR   Marginal VFR   IFR   Intensive IFR   Very Intensive IFR
Visi :
Ceiling :
>= 8 km
>= 3000ft
5 to 8 km
1000 to 3000 ft
1500m to 5 km
500 to 1000 ft
800 to 1500m
200 to 500 ft
< 800m
< 200 ft
Symbols :   Thunderstorms  Fog  Heavy snow  Heavy precipitations  Wind > 20 kt






- Airport Elevation : 433 ft
- IATA code : SEA


KSEA - Seattle Tacoma International

CURRENT METAR :
  • 281353Z 20005KT 3SM -RA BR FEW027 OVC036 08/07 A2986 RMK AO2 RAB03 SLP119 P0014 T00830067

EXPIRED METARs :
  • 281253Z 12011KT 10SM FEW030 BKN085 09/06 A2984 RMK AO2 SLP111 T00890056
  • 281153Z 12014KT 10SM SCT026 BKN032 08/07 A2984 RMK AO2 SLP113 60038 70078 T00830067 10094 20072 58008
  • 281140Z 11012KT 10SM SCT026 BKN032 08/07 A2985 RMK AO2 T00830067

TAF KSEA
Valid from the 28 at 12:00 until the 29 at 18:00 UTC


281144Z 2812/2918 14008KT P6SM BKN025 BKN040
FM281400 14008KT P6SM -RA SCT025 BKN040 OVC060
FM290000 18008KT P6SM SCT025 BKN040
FM290600 15008KT P6SM SCT050 BKN120
FM291300 15008KT P6SM -RA OVC040



MET'MAP, your aeronautical weather chart ! - Copyright ORBIFLY December 2007 - Disclaimer

ORBIFLY MET'MAP TEAM :

Programming & Development : Alexandra Zaïnal
Concept & original design : Baudouin d'Aumeries
Assistance for programming : Marc-Olivier Méhu
Technical & hardware support : Manuel Goepfert

Contact : metmap@orbifly.com




SOURCES & CREDITS :

   NOAA       Earth
Advisory